sensor_id;sensor_type;location;lat;lon;timestamp;P1;durP1;ratioP1;P2;durP2;ratioP2
35304;SDS011;26433;48.034;-1.764;2023-04-08T05:12:38;1.70;;;0.93;;
35304;SDS011;26433;48.034;-1.764;2023-04-08T05:17:43;2.05;;;1.10;;
35304;SDS011;26433;48.034;-1.764;2023-04-08T05:22:48;3.15;;;1.05;;
35304;SDS011;26433;48.034;-1.764;2023-04-08T05:27:51;2.45;;;0.98;;
35304;SDS011;26433;48.034;-1.764;2023-04-08T05:32:57;1.73;;;0.95;;
35304;SDS011;26433;48.034;-1.764;2023-04-08T05:38:01;4.53;;;0.98;;
35304;SDS011;26433;48.034;-1.764;2023-04-08T05:43:05;1.95;;;1.08;;
35304;SDS011;26433;48.034;-1.764;2023-04-08T05:48:10;1.63;;;1.10;;
35304;SDS011;26433;48.034;-1.764;2023-04-08T05:53:14;2.78;;;1.10;;
35304;SDS011;26433;48.034;-1.764;2023-04-08T05:58:17;0.87;;;0.73;;
35304;SDS011;26433;48.034;-1.764;2023-04-08T06:03:22;1.10;;;0.70;;
35304;SDS011;26433;48.034;-1.764;2023-04-08T06:08:26;1.23;;;0.98;;
35304;SDS011;26433;48.034;-1.764;2023-04-08T06:13:30;1.17;;;0.80;;
35304;SDS011;26433;48.034;-1.764;2023-04-08T06:18:35;1.25;;;0.98;;
35304;SDS011;26433;48.034;-1.764;2023-04-08T06:23:39;1.55;;;0.93;;
35304;SDS011;26433;48.034;-1.764;2023-04-08T06:28:43;2.25;;;0.80;;
35304;SDS011;26433;48.034;-1.764;2023-04-08T06:33:48;1.02;;;0.68;;
35304;SDS011;26433;48.034;-1.764;2023-04-08T06:38:53;1.80;;;0.93;;
35304;SDS011;26433;48.034;-1.764;2023-04-08T06:43:56;3.08;;;1.27;;
35304;SDS011;26433;48.034;-1.764;2023-04-08T06:49:01;1.73;;;0.80;;
35304;SDS011;26433;48.034;-1.764;2023-04-08T06:54:07;2.42;;;1.12;;
35304;SDS011;26433;48.034;-1.764;2023-04-08T06:59:11;5.85;;;1.50;;
35304;SDS011;26433;48.034;-1.764;2023-04-08T07:04:16;1.47;;;1.00;;
35304;SDS011;26433;48.034;-1.764;2023-04-08T07:09:20;4.68;;;1.27;;
35304;SDS011;26433;48.034;-1.764;2023-04-08T07:14:24;2.80;;;1.17;;
35304;SDS011;26433;48.034;-1.764;2023-04-08T07:19:29;1.95;;;1.15;;
35304;SDS011;26433;48.034;-1.764;2023-04-08T07:24:33;2.28;;;1.10;;
35304;SDS011;26433;48.034;-1.764;2023-04-08T07:29:36;5.95;;;1.27;;
35304;SDS011;26433;48.034;-1.764;2023-04-08T07:34:41;6.40;;;1.30;;
35304;SDS011;26433;48.034;-1.764;2023-04-08T07:39:45;3.20;;;1.12;;
35304;SDS011;26433;48.034;-1.764;2023-04-08T07:44:48;2.53;;;1.15;;
35304;SDS011;26433;48.034;-1.764;2023-04-08T07:54:57;2.17;;;1.27;;
35304;SDS011;26433;48.034;-1.764;2023-04-08T08:00:01;4.10;;;1.10;;
35304;SDS011;26433;48.034;-1.764;2023-04-08T08:05:14;3.37;;;1.50;;
35304;SDS011;26433;48.034;-1.764;2023-04-08T08:10:18;1.87;;;1.30;;
35304;SDS011;26433;48.034;-1.764;2023-04-08T08:15:22;4.77;;;1.30;;
35304;SDS011;26433;48.034;-1.764;2023-04-08T08:20:27;1.17;;;1.00;;
35304;SDS011;26433;48.034;-1.764;2023-04-08T08:25:31;2.28;;;1.33;;
35304;SDS011;26433;48.034;-1.764;2023-04-08T08:30:34;3.47;;;1.47;;
35304;SDS011;26433;48.034;-1.764;2023-04-08T08:35:40;4.10;;;1.50;;
35304;SDS011;26433;48.034;-1.764;2023-04-08T08:40:44;2.92;;;1.37;;
35304;SDS011;26433;48.034;-1.764;2023-04-08T08:45:48;3.83;;;2.13;;
35304;SDS011;26433;48.034;-1.764;2023-04-08T08:50:53;3.00;;;1.73;;
35304;SDS011;26433;48.034;-1.764;2023-04-08T08:55:57;1.83;;;1.27;;
35304;SDS011;26433;48.034;-1.764;2023-04-08T09:01:31;2.35;;;1.08;;
35304;SDS011;26433;48.034;-1.764;2023-04-08T09:06:38;2.55;;;1.37;;
35304;SDS011;26433;48.034;-1.764;2023-04-08T09:11:42;5.28;;;1.90;;
35304;SDS011;26433;48.034;-1.764;2023-04-08T09:16:47;2.97;;;1.55;;
35304;SDS011;26433;48.034;-1.764;2023-04-08T09:27:12;7.87;;;1.50;;
35304;SDS011;26433;48.034;-1.764;2023-04-08T09:32:15;2.57;;;1.30;;
35304;SDS011;26433;48.034;-1.764;2023-04-08T09:37:20;8.67;;;2.47;;
35304;SDS011;26433;48.034;-1.764;2023-04-08T09:42:24;9.50;;;2.53;;
35304;SDS011;26433;48.034;-1.764;2023-04-08T09:47:28;1.90;;;1.62;;
35304;SDS011;26433;48.034;-1.764;2023-04-08T09:52:38;2.95;;;2.55;;
35304;SDS011;26433;48.034;-1.764;2023-04-08T09:57:51;2.37;;;1.52;;
35304;SDS011;26433;48.034;-1.764;2023-04-08T10:08:13;3.22;;;1.87;;
35304;SDS011;26433;48.034;-1.764;2023-04-08T10:13:17;4.43;;;2.62;;
35304;SDS011;26433;48.034;-1.764;2023-04-08T10:18:29;4.10;;;2.53;;
35304;SDS011;26433;48.034;-1.764;2023-04-08T10:23:54;4.25;;;2.45;;
35304;SDS011;26433;48.034;-1.764;2023-04-08T10:34:50;4.57;;;2.00;;
35304;SDS011;26433;48.034;-1.764;2023-04-08T10:39:56;3.42;;;2.12;;
35304;SDS011;26433;48.034;-1.764;2023-04-08T10:45:00;3.92;;;1.73;;
35304;SDS011;26433;48.034;-1.764;2023-04-08T10:55:15;2.58;;;1.37;;
35304;SDS011;26433;48.034;-1.764;2023-04-08T11:00:31;4.75;;;1.40;;
35304;SDS011;26433;48.034;-1.764;2023-04-08T11:05:36;1.30;;;1.20;;
35304;SDS011;26433;48.034;-1.764;2023-04-08T11:10:41;1.58;;;1.08;;
35304;SDS011;26433;48.034;-1.764;2023-04-08T11:15:46;1.62;;;0.70;;
35304;SDS011;26433;48.034;-1.764;2023-04-08T11:20:50;0.85;;;0.68;;
35304;SDS011;26433;48.034;-1.764;2023-04-08T11:25:55;0.80;;;0.70;;
35304;SDS011;26433;48.034;-1.764;2023-04-08T11:31:00;1.48;;;0.90;;
35304;SDS011;26433;48.034;-1.764;2023-04-08T11:36:05;1.05;;;0.75;;
35304;SDS011;26433;48.034;-1.764;2023-04-08T11:41:10;0.70;;;0.70;;
35304;SDS011;26433;48.034;-1.764;2023-04-08T11:46:14;0.70;;;0.70;;
35304;SDS011;26433;48.034;-1.764;2023-04-08T11:51:18;0.60;;;0.60;;
35304;SDS011;26433;48.034;-1.764;2023-04-08T11:56:23;0.32;;;0.32;;
35304;SDS011;26433;48.034;-1.764;2023-04-08T12:01:27;1.98;;;1.00;;
35304;SDS011;26433;48.034;-1.764;2023-04-08T12:06:31;1.10;;;0.47;;
35304;SDS011;26433;48.034;-1.764;2023-04-08T12:11:36;6.32;;;0.75;;
35304;SDS011;26433;48.034;-1.764;2023-04-08T12:16:39;0.73;;;0.73;;
35304;SDS011;26433;48.034;-1.764;2023-04-08T12:21:43;1.15;;;0.60;;
35304;SDS011;26433;48.034;-1.764;2023-04-08T12:26:48;0.60;;;0.50;;
35304;SDS011;26433;48.034;-1.764;2023-04-08T12:31:52;0.68;;;0.50;;
35304;SDS011;26433;48.034;-1.764;2023-04-08T12:36:55;0.62;;;0.62;;
35304;SDS011;26433;48.034;-1.764;2023-04-08T12:42:00;4.28;;;1.02;;
35304;SDS011;26433;48.034;-1.764;2023-04-08T12:47:05;1.33;;;0.90;;
35304;SDS011;26433;48.034;-1.764;2023-04-08T12:52:09;1.08;;;0.75;;
35304;SDS011;26433;48.034;-1.764;2023-04-08T12:57:14;2.53;;;0.60;;
35304;SDS011;26433;48.034;-1.764;2023-04-08T13:02:18;1.20;;;0.80;;
35304;SDS011;26433;48.034;-1.764;2023-04-08T13:07:22;0.77;;;0.70;;
35304;SDS011;26433;48.034;-1.764;2023-04-08T13:12:26;1.10;;;0.53;;
35304;SDS011;26433;48.034;-1.764;2023-04-08T13:17:30;1.73;;;0.70;;
35304;SDS011;26433;48.034;-1.764;2023-04-08T13:27:39;0.50;;;0.50;;
35304;SDS011;26433;48.034;-1.764;2023-04-08T13:32:44;2.05;;;1.15;;
35304;SDS011;26433;48.034;-1.764;2023-04-08T13:37:48;0.47;;;0.47;;
35304;SDS011;26433;48.034;-1.764;2023-04-08T13:42:53;2.78;;;0.77;;
35304;SDS011;26433;48.034;-1.764;2023-04-08T13:47:57;0.55;;;0.50;;
35304;SDS011;26433;48.034;-1.764;2023-04-08T13:53:01;5.00;;;0.95;;
35304;SDS011;26433;48.034;-1.764;2023-04-08T13:58:06;2.15;;;0.85;;
35304;SDS011;26433;48.034;-1.764;2023-04-08T14:03:23;0.55;;;0.55;;
35304;SDS011;26433;48.034;-1.764;2023-04-08T14:08:28;0.60;;;0.30;;
35304;SDS011;26433;48.034;-1.764;2023-04-08T14:13:33;0.95;;;0.80;;
35304;SDS011;26433;48.034;-1.764;2023-04-08T14:18:37;0.40;;;0.32;;
35304;SDS011;26433;48.034;-1.764;2023-04-08T14:23:41;1.52;;;0.52;;
35304;SDS011;26433;48.034;-1.764;2023-04-08T14:28:46;0.57;;;0.40;;
35304;SDS011;26433;48.034;-1.764;2023-04-08T14:33:50;2.20;;;1.05;;
35304;SDS011;26433;48.034;-1.764;2023-04-08T14:38:53;0.40;;;0.28;;
35304;SDS011;26433;48.034;-1.764;2023-04-08T14:43:58;0.43;;;0.40;;
35304;SDS011;26433;48.034;-1.764;2023-04-08T14:49:02;0.62;;;0.32;;
35304;SDS011;26433;48.034;-1.764;2023-04-08T14:54:06;1.87;;;0.85;;
35304;SDS011;26433;48.034;-1.764;2023-04-08T14:59:11;0.47;;;0.47;;
35304;SDS011;26433;48.034;-1.764;2023-04-08T15:04:14;0.55;;;0.55;;
35304;SDS011;26433;48.034;-1.764;2023-04-08T15:09:18;0.90;;;0.80;;
35304;SDS011;26433;48.034;-1.764;2023-04-08T15:14:23;7.95;;;0.82;;
35304;SDS011;26433;48.034;-1.764;2023-04-08T15:19:27;0.35;;;0.35;;
35304;SDS011;26433;48.034;-1.764;2023-04-08T15:24:31;1.20;;;0.43;;
35304;SDS011;26433;48.034;-1.764;2023-04-08T15:29:36;0.90;;;0.50;;
35304;SDS011;26433;48.034;-1.764;2023-04-08T15:34:39;0.43;;;0.40;;
35304;SDS011;26433;48.034;-1.764;2023-04-08T15:39:43;0.60;;;0.60;;
35304;SDS011;26433;48.034;-1.764;2023-04-08T15:44:48;0.43;;;0.40;;
35304;SDS011;26433;48.034;-1.764;2023-04-08T15:49:51;0.30;;;0.30;;
35304;SDS011;26433;48.034;-1.764;2023-04-08T15:54:56;0.73;;;0.65;;
35304;SDS011;26433;48.034;-1.764;2023-04-08T16:00:01;3.00;;;0.43;;
35304;SDS011;26433;48.034;-1.764;2023-04-08T16:05:12;1.85;;;0.30;;
35304;SDS011;26433;48.034;-1.764;2023-04-08T16:10:16;0.63;;;0.53;;
35304;SDS011;26433;48.034;-1.764;2023-04-08T16:15:21;4.70;;;0.90;;
35304;SDS011;26433;48.034;-1.764;2023-04-08T16:20:25;0.68;;;0.68;;
35304;SDS011;26433;48.034;-1.764;2023-04-08T16:30:34;0.20;;;0.20;;
35304;SDS011;26433;48.034;-1.764;2023-04-08T16:35:38;0.20;;;0.20;;
35304;SDS011;26433;48.034;-1.764;2023-04-08T16:40:42;3.20;;;0.63;;
35304;SDS011;26433;48.034;-1.764;2023-04-08T16:45:46;0.32;;;0.32;;
35304;SDS011;26433;48.034;-1.764;2023-04-08T16:50:50;0.52;;;0.40;;
35304;SDS011;26433;48.034;-1.764;2023-04-08T16:55:54;0.57;;;0.40;;
35304;SDS011;26433;48.034;-1.764;2023-04-08T17:00:59;0.80;;;0.40;;
35304;SDS011;26433;48.034;-1.764;2023-04-08T17:06:05;0.50;;;0.32;;
35304;SDS011;26433;48.034;-1.764;2023-04-08T17:11:10;2.85;;;0.68;;
35304;SDS011;26433;48.034;-1.764;2023-04-08T17:16:17;0.45;;;0.45;;
35304;SDS011;26433;48.034;-1.764;2023-04-08T17:21:21;2.30;;;0.85;;
35304;SDS011;26433;48.034;-1.764;2023-04-08T17:26:24;0.82;;;0.62;;
35304;SDS011;26433;48.034;-1.764;2023-04-08T17:31:30;3.05;;;0.30;;
35304;SDS011;26433;48.034;-1.764;2023-04-08T17:36:34;1.75;;;0.57;;
35304;SDS011;26433;48.034;-1.764;2023-04-08T17:41:37;0.23;;;0.20;;
35304;SDS011;26433;48.034;-1.764;2023-04-08T17:46:45;1.02;;;0.93;;
35304;SDS011;26433;48.034;-1.764;2023-04-08T17:51:48;1.08;;;0.47;;
35304;SDS011;26433;48.034;-1.764;2023-04-08T17:56:52;1.60;;;0.80;;
35304;SDS011;26433;48.034;-1.764;2023-04-08T18:01:57;1.67;;;0.73;;
35304;SDS011;26433;48.034;-1.764;2023-04-08T18:07:00;0.68;;;0.68;;
35304;SDS011;26433;48.034;-1.764;2023-04-08T18:12:06;0.75;;;0.40;;
35304;SDS011;26433;48.034;-1.764;2023-04-08T18:17:11;0.73;;;0.70;;
35304;SDS011;26433;48.034;-1.764;2023-04-08T18:22:15;0.55;;;0.40;;
35304;SDS011;26433;48.034;-1.764;2023-04-08T18:27:18;0.83;;;0.63;;
35304;SDS011;26433;48.034;-1.764;2023-04-08T18:32:23;3.30;;;0.67;;
35304;SDS011;26433;48.034;-1.764;2023-04-08T18:37:27;1.08;;;0.47;;
35304;SDS011;26433;48.034;-1.764;2023-04-08T18:42:32;4.55;;;0.85;;
35304;SDS011;26433;48.034;-1.764;2023-04-08T18:47:37;6.87;;;0.97;;
35304;SDS011;26433;48.034;-1.764;2023-04-08T18:52:41;2.12;;;0.80;;
35304;SDS011;26433;48.034;-1.764;2023-04-08T18:57:44;1.92;;;0.68;;
35304;SDS011;26433;48.034;-1.764;2023-04-08T19:02:49;5.43;;;0.90;;
35304;SDS011;26433;48.034;-1.764;2023-04-08T19:07:53;4.47;;;0.88;;
35304;SDS011;26433;48.034;-1.764;2023-04-08T19:12:57;5.20;;;0.67;;
35304;SDS011;26433;48.034;-1.764;2023-04-08T19:18:02;3.22;;;0.90;;
35304;SDS011;26433;48.034;-1.764;2023-04-08T19:23:06;2.92;;;0.70;;
35304;SDS011;26433;48.034;-1.764;2023-04-08T19:28:10;0.60;;;0.60;;
35304;SDS011;26433;48.034;-1.764;2023-04-08T19:33:16;1.33;;;0.60;;
35304;SDS011;26433;48.034;-1.764;2023-04-08T19:38:20;1.35;;;0.70;;
35304;SDS011;26433;48.034;-1.764;2023-04-08T19:43:23;1.37;;;0.60;;
35304;SDS011;26433;48.034;-1.764;2023-04-08T19:48:28;1.30;;;0.57;;
35304;SDS011;26433;48.034;-1.764;2023-04-08T19:53:33;4.47;;;1.10;;
35304;SDS011;26433;48.034;-1.764;2023-04-08T19:58:36;0.83;;;0.60;;
35304;SDS011;26433;48.034;-1.764;2023-04-08T20:03:41;4.12;;;0.80;;
35304;SDS011;26433;48.034;-1.764;2023-04-08T20:08:51;1.48;;;0.60;;
35304;SDS011;26433;48.034;-1.764;2023-04-08T20:19:00;3.58;;;0.73;;
35304;SDS011;26433;48.034;-1.764;2023-04-08T20:24:04;0.90;;;0.70;;
35304;SDS011;26433;48.034;-1.764;2023-04-08T20:29:08;3.47;;;0.90;;
35304;SDS011;26433;48.034;-1.764;2023-04-08T20:34:13;1.27;;;0.70;;
35304;SDS011;26433;48.034;-1.764;2023-04-08T20:39:16;1.87;;;1.00;;
35304;SDS011;26433;48.034;-1.764;2023-04-08T20:44:20;1.47;;;0.67;;
35304;SDS011;26433;48.034;-1.764;2023-04-08T20:49:25;1.42;;;0.65;;
35304;SDS011;26433;48.034;-1.764;2023-04-08T20:54:29;1.37;;;1.20;;
35304;SDS011;26433;48.034;-1.764;2023-04-08T20:59:33;2.40;;;0.93;;
35304;SDS011;26433;48.034;-1.764;2023-04-08T21:04:38;0.90;;;0.83;;
35304;SDS011;26433;48.034;-1.764;2023-04-08T21:09:41;2.10;;;0.98;;
35304;SDS011;26433;48.034;-1.764;2023-04-08T21:14:45;2.40;;;0.80;;
35304;SDS011;26433;48.034;-1.764;2023-04-08T21:19:50;3.53;;;0.77;;
35304;SDS011;26433;48.034;-1.764;2023-04-08T21:24:54;2.05;;;0.80;;
35304;SDS011;26433;48.034;-1.764;2023-04-08T21:35:03;1.65;;;0.70;;
35304;SDS011;26433;48.034;-1.764;2023-04-08T21:40:07;1.35;;;0.85;;
35304;SDS011;26433;48.034;-1.764;2023-04-08T21:45:12;3.10;;;1.00;;
35304;SDS011;26433;48.034;-1.764;2023-04-08T21:50:17;0.55;;;0.55;;
35304;SDS011;26433;48.034;-1.764;2023-04-08T21:55:21;1.62;;;0.90;;
35304;SDS011;26433;48.034;-1.764;2023-04-08T22:00:25;2.08;;;0.75;;
35304;SDS011;26433;48.034;-1.764;2023-04-08T22:05:31;2.57;;;0.90;;
35304;SDS011;26433;48.034;-1.764;2023-04-08T22:10:35;1.75;;;0.77;;
35304;SDS011;26433;48.034;-1.764;2023-04-08T22:15:39;0.73;;;0.73;;
35304;SDS011;26433;48.034;-1.764;2023-04-08T22:20:44;1.92;;;0.70;;
35304;SDS011;26433;48.034;-1.764;2023-04-08T22:25:47;2.12;;;1.00;;
